Weather observations for the past three days for
Harbor Springs, Harbor Springs Airport
Metric (Imperial)
Date Time (edt) Wind (kph) Vis. (km) Weather Sky Cond. Temperature (ºC) Relative Humidity Wind Chill (°C) Heat Index (°C) Pressure Precipitation (cm)
Air Dwpt 6 hour altimeter (cm) sea level (mb) 1 hr 3 hr 6 hr
Max. Min.
05 15:15 W 13 16.09 Fair CLR 9.5 -1.6 46% 8 75.51 0.0
05 14:55 W 15 16.09 Fair CLR 9.1 -1.5 48% 7 75.51 0.0
05 14:35 SW 17 G 26 16.09 Fair CLR 8.6 -1.2 51% 6 75.49 0.0
05 14:15 SW 17 G 28 16.09 Fair CLR 8.1 0 57% 6 75.46 0.0
05 13:55 W 13 16.09 Fair CLR 9 -0.1 53% 7 75.46 0.0
05 13:35 SW 17 G 28 16.09 Fair CLR 8.2 -0.7 54% 6 75.46 0.0
05 13:15 W 15 G 30 16.09 Fair CLR 8.8 -1.2 50% 7 75.44 0.0
05 12:55 W 15 G 30 16.09 Fair CLR 8.6 -0.5 53% 6 75.44 0.0
05 12:35 SW 15 G 26 16.09 Fair CLR 8.1 0 57% 6 75.44 0.0
05 12:15 SW 17 G 26 16.09 Partly Cloudy SCT080 7.5 0.1 60% 5 75.44 0.0
05 11:55 W 17 16.09 Partly Cloudy SCT080 6.6 0.6 66% 4 75.44 0.0
05 11:35 SW 17 16.09 Fair CLR 6.3 1.5 72% 3 75.44 0.0
05 11:15 W 13 16.09 Fair CLR 6.2 1.1 70% 4 75.44 0.0
05 10:55 W 19 16.09 Partly Cloudy SCT070 6 1.6 74% 3 75.41 0.0
05 10:35 W 15 16.09 Mostly Cloudy BKN070 6.5 2.3 75% 4 75.39 0.0
05 10:15 SW 15 16.09 Overcast OVC070 7.1 0.3 62% 5 75.36 0.0
05 09:55 W 9 16.09 Overcast OVC070 6.5 0.1 64% 5 75.34 0.0
05 09:35 NW 11 16.09 Overcast OVC070 6.5 0.2 64% 5 75.34 0.0
05 09:15 NW 11 16.09 Overcast OVC070 6.3 0.4 66% 4 75.29 0.0
05 08:55 W 13 16.09 Overcast OVC070 6.2 0.3 66% 4 75.29 0.0
05 08:35 NW 13 16.09 Overcast OVC070 5.9 0.4 68% 3 75.26 0.0
05 08:15 W 9 16.09 Overcast OVC080 4.5 2.2 85% 3 75.26 0.0
05 07:55 SW 6 16.09 Overcast OVC080 3.9 2.3 89% 75.23 0.0
05 07:35 Calm 16.09 Overcast OVC080 4 2.9 93% 75.23 0.0
05 07:15 Calm 16.09 Overcast SCT065 OVC080 3.4 2.8 96% 75.23 0.0
05 06:55 Calm 16.09 Mostly Cloudy SCT060 BKN080 2.8 2.2 96% 75.21 0.0
05 06:35 W 7 16.09 Partly Cloudy SCT060 3 2.2 95% 1 75.16 0.0
05 06:15 Calm 16.09 Mostly Cloudy BKN060 3.1 1.6 90% 75.13 0.0
05 05:55 Calm 16.09 Overcast OVC060 5 -0.6 67% 75.13 0.0
05 05:35 Calm 16.09 Overcast OVC060 5.5 -0.9 64% 75.11 0.0
05 05:15 NW 11 16.09 Overcast OVC070 5.9 -0.8 62% 4 75.08 0.0
05 04:55 NW 11 16.09 Overcast OVC070 6.1 -0.9 61% 4 75.08 0.0
05 04:35 NW 13 16.09 Overcast OVC070 6.5 -0.9 60% 4 75.08 0.0
05 04:15 NW 17 16.09 Overcast OVC070 6.9 -1.1 57% 4 75.08 0.0
05 03:55 NW 11 16.09 Overcast OVC070 7.5 -1.1 55% 6 75.06 0.0
05 03:35 NW 17 16.09 Overcast OVC070 7.6 -1.1 54% 5 75.06 0.0
05 03:15 NW 11 16.09 Overcast OVC060 7.8 -1.4 53% 6 75.03 0.0
05 02:55 NW 9 16.09 Overcast OVC060 8 -1.5 51% 7 75.03 0.0
05 02:35 NW 9 16.09 Overcast OVC060 8.1 -0.9 53% 7 75.03 0.0
05 02:15 NW 11 16.09 Overcast OVC060 8.1 -0.6 55% 6 75.03 0.0
05 01:55 NW 9 16.09 Overcast OVC060 8.4 -0.7 53% 7 75.03 0.0
05 01:35 NW 6 16.09 Overcast OVC060 8.6 -0.4 54% 75.03 0.0
05 01:15 NW 6 16.09 Overcast OVC060 8.6 0.3 56% 75.01 0.0
05 00:55 Calm 16.09 Overcast OVC060 8.6 0.9 59% 74.98 0.0
05 00:35 Calm 16.09 Overcast OVC050 8.5 2 64% 74.96 0.0
05 00:15 Calm 16.09 Overcast OVC050 9 1.2 58% 74.93 0.0
04 23:55 Calm 16.09 Overcast OVC050 8.9 1.9 62% 74.9 0.0
04 23:35 NE 7 16.09 Overcast OVC050 9.1 2.2 62% 8 74.9 0.0
04 23:15 NE 6 16.09 Overcast SCT048 OVC110 9 2.9 66% 74.88 0.0
04 22:55 E 11 16.09 Overcast SCT080 OVC095 8.8 5.2 78% 7 74.8 0.0
04 22:35 E 9 16.09 Overcast OVC080 8.8 6.9 88% 8 74.85 0.0
04 22:15 E 11 16.09 Overcast BKN080 OVC090 8.9 7.2 89% 7 74.83 0.0
04 21:55 NE 11 16.09 Drizzle SCT065 OVC080 9 7.6 91% 8 74.83 0.0
04 21:35 E 11 16.09 Light Drizzle OVC080 9.1 7.4 89% 8 74.8 0.0
04 21:15 NE 11 16.09 Overcast OVC080 9.3 7.7 90% 8 74.75 0.0
04 20:55 NE 7 16.09 Light Rain SCT050 SCT060 OVC080 8.5 8.2 98% 8 74.73 0.0
04 20:35 Calm 8.05 Light Rain SCT050 BKN060 OVC080 6.7 6.4 98% 74.7 0.0
04 20:15 Calm 11.27 Rain OVC060 6.5 5.8 95% 74.75 0.0
04 19:55 SW 6 11.27 Rain BKN060 OVC080 8.8 7.4 91% 74.73 0.0
04 19:35 S 6 11.27 Rain OVC070 10.9 7.6 80% 74.68 0.0
04 19:15 NW 11 G 26 16.09 Light Rain BKN070 OVC080 12.6 5 60% 74.63 0.0
04 18:55 NW 20 G 48 16.09 Light Rain OVC075 15.2 2.8 44% 74.55 0.0
04 18:35 SW 22 G 35 16.09 Overcast SCT070 OVC085 17.1 4.1 42% 74.45 0.0
04 18:15 SW 26 G 43 16.09 Light Rain SCT070 OVC085 16.6 3.9 43% 74.45 0.0
04 17:55 SW 17 G 28 16.09 Mostly Cloudy BKN095 BKN110 16.3 2.4 39% 74.42 0.0
04 17:35 W 9 G 35 16.09 Partly Cloudy SCT100 17.6 2.4 36% 74.42 0.0
04 17:15 SW 24 G 39 16.09 Mostly Cloudy BKN090 BKN110 18.8 2.2 33% 74.42 0.0
04 16:55 SW 22 G 43 16.09 Overcast OVC090 18.5 2.2 34% 74.42 0.0
04 16:35 SW 24 G 35 16.09 Overcast OVC090 17.8 2.1 35% 74.42 0.0
04 16:15 SW 22 G 41 16.09 Overcast BKN090 OVC120 18.1 1.8 34% 74.45 0.0
04 15:55 SW 26 G 41 16.09 Overcast OVC110 18.1 1.7 33% 74.45 0.0
04 15:35 SW 26 G 41 16.09 Overcast OVC110 17.8 1.5 34% 74.47 0.0
04 15:15 SW 20 G 39 16.09 Mostly Cloudy BKN110 18 1.1 32% 74.47 0.0
04 14:55 SW 31 G 50 16.09 Partly Cloudy SCT110 18.9 0.5 29% 74.47 0.0
04 14:35 SW 35 G 44 16.09 Partly Cloudy and Breezy SCT100 19.2 0.5 29% 74.45 0.0
04 14:15 SW 41 G 59 16.09 Partly Cloudy and Breezy SCT100 SCT120 20.1 0.3 27% 74.45 0.0
04 13:55 SW 43 G 57 16.09 Partly Cloudy and Windy SCT100 20.6 0.3 26% 74.45 0.0
04 13:35 SW 30 G 56 16.09 Fair CLR 20.5 0.4 26% 74.5 0.0
04 13:15 SW 33 G 52 16.09 Fair and Breezy CLR 19.9 0.9 28% 74.52 0.0
04 12:55 SW 30 G 54 16.09 Fair CLR 19.5 0.7 29% 74.55 0.0
04 12:35 SW 31 G 44 16.09 Fair CLR 18.3 1.5 33% 74.57 0.0
04 12:15 SW 28 G 39 16.09 Fair CLR 18.1 1.8 34% 74.6 0.0
04 11:55 SW 28 G 39 16.09 Fair CLR 17.5 2.3 36% 74.63 0.0
04 11:35 SW 22 G 37 16.09 Fair CLR 17 2.4 38% 74.68 0.0
04 11:15 SW 22 G 33 16.09 Fair CLR 16.6 2.6 39% 74.7 0.0
04 10:55 SW 19 16.09 Fair CLR 15.1 4.1 48% 74.7 0.0
04 10:35 W 7 16.09 Fair CLR 15.1 4.3 49% 74.73 0.0
04 10:15 SW 6 16.09 Fair CLR 14.1 5.8 58% 74.75 0.0
04 09:55 S 6 16.09 Fair CLR 13.5 6.7 64% 74.78 0.0
04 09:35 S 6 16.09 Fair CLR 12.3 5.7 64% 74.8 0.0
04 09:15 S 6 16.09 Fair CLR 11.7 5.9 68% 74.83 0.0
04 08:55 S 7 16.09 Fair CLR 10.3 5.5 72% 74.85 0.0
04 08:35 Calm 16.09 Fair CLR 9.3 6.1 81% 74.88 0.0
04 08:15 Calm 16.09 Fair CLR 9.4 5.7 78% 74.9 0.0
04 07:55 Calm 16.09 Fair CLR 8.6 5.3 80% 74.9 0.0
04 07:35 SW 7 16.09 Fair CLR 8.1 5.5 84% 7 74.9 0.0
04 07:15 S 6 16.09 Fair CLR 8 5.5 84% 74.93 0.0
04 06:55 SW 9 16.09 Fair CLR 7.1 5.7 91% 6 74.93 0.0
04 06:35 Calm 16.09 Fair CLR 4.8 4.4 97% 74.96 0.0
04 06:15 Calm 16.09 Fair CLR 4.4 3.5 94% 74.96 0.0
04 05:55 Calm 16.09 Fair CLR 4.8 4.1 95% 74.96 0.0
04 05:35 Calm 16.09 Fair CLR 6.4 5.5 94% 74.98 0.0
04 05:15 Calm 16.09 Fair CLR 4.3 3.9 97% 75.01 0.0
04 04:55 NW 6 16.09 Fair CLR 2.6 2.3 98% 75.03 0.0
04 04:35 Calm 16.09 Fair CLR 3.6 3.2 97% 75.03 0.0
04 04:15 Calm 16.09 Fair CLR 3.9 3.5 97% 75.06 0.0
04 03:55 Calm 16.09 Fair CLR 4.2 3.9 98% 75.08 0.0
04 03:35 Calm 11.27 Fair CLR 3.1 2.7 97% 75.08 0.0
04 03:15 Calm 8.05 Fog/Mist CLR 2.6 2.4 99% 75.11 0.0
04 02:55 Calm 11.27 Fair CLR 3.5 3.1 97% 75.13 0.0
04 02:35 Calm 11.27 Fair CLR 3.5 3.2 98% 75.16 0.0
04 02:15 Calm 16.09 Fair CLR 3.8 3.5 98% 75.16 0.0
04 01:55 Calm 16.09 Fair CLR 4.8 4.5 98% 75.16 0.0
04 01:35 Calm 16.09 Fair CLR 5 4.6 97% 75.18 0.0
04 01:15 Calm 16.09 Fair CLR 4.4 4 97% 75.21 0.0
04 00:55 Calm 16.09 Fair CLR 4.5 4.1 97% 75.21 0.0
04 00:35 Calm 16.09 Fair CLR 4.5 4.1 97% 75.21 0.0
04 00:15 Calm 16.09 Fair CLR 5 4.6 97% 75.21 0.0
03 23:55 Calm 16.09 Fair CLR 5.6 5.3 98% 75.23 0.0
03 23:35 Calm 4.83 Fog/Mist SCT055 7.1 6.7 97% 75.23 0.0
03 23:15 Calm 16.09 Overcast OVC055 9.4 7.7 89% 75.23 0.0
03 22:55 Calm 16.09 Overcast BKN055 OVC065 9.2 7.9 92% 75.26 0.0
03 22:35 Calm 16.09 Overcast OVC055 8.8 8.5 98% 75.23 0.0
03 22:15 Calm 16.09 Overcast OVC055 9.4 8.3 93% 75.23 0.0
03 21:55 Calm 16.09 Rain SCT060 BKN065 OVC090 9 8.5 97% 75.21 0.0
03 21:35 Calm 16.09 Rain SCT060 BKN080 OVC090 8.7 8.4 98% 75.23 0.0
03 21:15 Calm 16.09 Light Rain SCT060 BKN080 OVC100 8.3 8 98% 75.21 0.0
03 20:55 Calm 16.09 Mostly Cloudy SCT080 BKN100 8.3 7.9 97% 75.21 0.0
03 20:35 W 6 16.09 Fair CLR 8 7.6 97% 75.21 0.0
03 20:15 Calm 11.27 Partly Cloudy SCT090 SCT120 7.3 7 98% 75.21 0.0
03 19:55 W 6 11.27 Light Rain SCT029 BKN085 OVC110 7.2 6.8 97% 75.21 0.0
03 19:35 SW 13 8.05 Heavy Rain SCT028 BKN048 OVC100 9 8.6 97% 7 75.29 0.0
03 19:15 NW 20 G 37 8.05 Heavy Rain SCT038 BKN044 OVC050 10.2 8.3 88% 75.29 0.0
03 18:55 W 11 16.09 Rain BKN060 OVC075 11.2 6 71% 75.21 0.0
03 18:35 SW 13 G 28 16.09 Overcast OVC070 12.7 5 60% 75.16 0.0
03 18:15 SW 17 G 30 16.09 Overcast OVC070 13 5.1 59% 75.16 0.0
03 17:55 SW 19 G 28 16.09 Overcast OVC070 13.1 5 58% 75.16 0.0
03 17:35 SW 19 G 28 16.09 Overcast OVC070 12.5 4.8 60% 75.18 0.0
03 17:15 SW 20 G 31 16.09 Overcast OVC070 13.1 5 58% 75.21 0.0
03 16:55 SW 17 G 28 16.09 Partly Cloudy SCT070 13.3 4.8 57% 75.21 0.0
03 16:35 SW 17 G 28 16.09 Partly Cloudy SCT075 14 4.6 53% 75.26 0.0
03 16:15 SW 17 G 31 16.09 Mostly Cloudy BKN085 13.9 4 52% 75.29 0.0
03 15:55 SW 19 G 30 16.09 Mostly Cloudy BKN085 13.6 3.5 51% 75.31 0.0
03 15:35 SW 19 G 30 16.09 Partly Cloudy SCT085 14.2 3.6 49% 75.31 0.0
03 15:15 SW 13 16.09 Partly Cloudy SCT085 13.5 3.5 51% 75.34 0.0
03 14:55 SW 13 16.09 Fair CLR 13.4 4.1 54% 75.36 0.0
03 14:35 SW 11 16.09 Partly Cloudy SCT060 SCT090 12.9 4.5 57% 75.36 0.0
03 14:15 SW 7 16.09 Overcast OVC060 11 4.9 66% 75.41 0.0
03 13:55 SW 11 16.09 Overcast BKN060 BKN080 OVC100 11 5.2 68% 75.41 0.0
03 13:35 SW 6 16.09 Overcast BKN070 OVC100 10.6 6.4 75% 75.41 0.0
03 13:15 SW 6 16.09 Light Rain SCT047 BKN055 OVC080 9.3 6.1 81% 75.44 0.0
03 12:55 SW 7 16.09 Overcast OVC047 9.2 5.1 76% 8 75.46 0.0
03 12:35 W 7 16.09 Overcast SCT035 OVC047 9.1 4.6 74% 8 75.46 0.0
03 12:15 W 7 16.09 Light Drizzle SCT023 BKN035 OVC043 8.8 4.6 75% 8 75.46 0.0
03 11:55 W 7 16.09 Overcast SCT023 BKN044 OVC050 8.5 3.7 72% 8 75.49 0.0
03 11:35 W 7 16.09 Light Drizzle OVC050 8.5 3.4 71% 8 75.49 0.0
03 11:15 W 9 16.09 Overcast OVC050 8.8 3.1 68% 8 75.49 0.0
03 10:55 W 7 16.09 Light Rain OVC050 8.2 2.3 67% 7 75.51 0.0
03 10:35 W 6 16.09 Overcast OVC050 7.8 2.2 68% 75.49 0.0
03 10:15 Calm 16.09 Overcast OVC050 7.7 2.9 72% 75.49 0.0
03 09:55 Calm 16.09 Overcast OVC050 6.5 2 73% 75.51 0.0
03 09:35 Calm 16.09 Overcast OVC050 6.2 1.7 73% 75.54 0.0
03 09:15 Calm 16.09 Overcast SCT048 OVC060 5.8 1.8 76% 75.54 0.0
03 08:55 Calm 16.09 Light Rain SCT034 BKN048 OVC060 5.6 0.7 71% 75.54 0.0
03 08:35 Calm 16.09 Overcast SCT034 BKN048 OVC060 5.4 -0.7 65% 75.57 0.0
03 08:15 Calm 16.09 Light Rain BKN060 OVC070 4.7 -1.5 65% 75.59 0.0
03 07:55 Calm 16.09 Overcast SCT060 OVC080 5 -3.1 56% 75.59 0.0
03 07:35 Calm 16.09 Overcast OVC080 4.5 -3.6 56% 75.59 0.0
03 07:15 Calm 16.09 Overcast BKN080 OVC095 3.5 -2.7 64% 75.59 0.0
03 06:55 Calm 16.09 Mostly Cloudy BKN085 BKN110 2.6 -3.5 64% 75.62 0.0
03 06:35 Calm 16.09 Mostly Cloudy BKN095 BKN110 1.5 -3.4 70% 75.62 0.0
03 06:15 Calm 16.09 Overcast OVC095 1.1 -3.2 73% 75.62 0.0
03 05:55 Calm 16.09 Partly Cloudy SCT110 1.1 -3.9 70% 75.64 0.0
03 05:35 Calm 16.09 Partly Cloudy SCT095 SCT120 0.7 -4.1 71% 75.67 0.0
03 05:15 NE 6 16.09 Mostly Cloudy SCT095 BKN120 0.7 -4.4 69% 75.67 0.0
03 04:55 Calm 16.09 Mostly Cloudy BKN095 0.8 -4.6 68% 75.72 0.0
03 04:35 Calm 16.09 Mostly Cloudy BKN095 -0.1 -4.1 75% 75.72 0.0
03 04:15 NE 6 16.09 Partly Cloudy SCT095 SCT120 -0.5 -4.3 76% 75.74 0.0
03 03:55 NE 6 16.09 Fair CLR -0.2 -4.9 71% 75.77 0.0
03 03:35 Calm 16.09 Fair CLR -0.7 -6.1 67% 75.79 0.0
03 03:15 NE 6 16.09 Fair CLR -0.5 -6.1 66% 75.79 0.0
03 02:55 Calm 16.09 Fair CLR -0.4 -6.3 65% 75.84 0.0
03 02:35 NE 6 16.09 Fair CLR -0.4 -6.1 66% 75.84 0.0
03 02:15 Calm 16.09 Fair CLR 0 -6.1 64% 75.87 0.0
03 01:55 Calm 16.09 Fair CLR 0 -6.1 64% 75.9 0.0
03 01:35 Calm 16.09 Fair CLR -0.2 -5.8 66% 75.92 0.0
03 01:15 Calm 16.09 Fair CLR 0.4 -4.6 69% 75.92 0.0
03 00:55 W 6 16.09 Fair CLR 0 -5.8 65% 75.95 0.0
03 00:35 Calm 16.09 Fair CLR 0.4 -6.1 62% 75.95 0.0
03 00:15 Calm 16.09 Fair CLR 0.5 -6.2 61% 75.97 0.0
02 23:55 Calm 16.09 Fair CLR 0.9 -6.3 59% 75.97 0.0
02 23:35 Calm 16.09 Fair CLR 0.9 -6.4 59% 76 0.0
02 23:15 Calm 16.09 Fair CLR 1.2 -6.5 57% 76 0.0
02 22:55 Calm 16.09 Fair CLR 1.6 -6.5 55% 76.02 0.0
02 22:35 Calm 16.09 Fair CLR 2.3 -6.6 52% 76.02 0.0
02 22:15 Calm 16.09 Fair CLR 2.9 -6.6 50% 76.05 0.0
02 21:55 Calm 16.09 Fair CLR 3.3 -5.6 52% 76.02 0.0
02 21:35 Calm 16.09 Fair CLR 3.5 -4.5 56% 76.02 0.0
02 21:15 Calm 16.09 Fair CLR 3.4 -4.5 57% 76.02 0.0
02 20:55 Calm 16.09 Fair CLR 3.7 -3.7 59% 76.02 0.0
02 20:35 Calm 16.09 Fair CLR 6.1 -8.2 35% 76.02 0.0
02 20:15 Calm 16.09 Fair CLR 6.6 -7.9 35% 76.02 0.0
02 19:55 SW 6 16.09 Fair CLR 7 -7 37% 76.02 0.0
02 19:35 SW 6 16.09 Fair CLR 8.1 -7.6 32% 76.02 0.0
02 19:15 SW 6 16.09 Fair CLR 8 -9.1 29% 76.05 0.0
02 18:55 W 7 16.09 Fair CLR 8.1 -8.8 29% 7 76.05 0.0
02 18:35 W 7 16.09 Fair CLR 8.3 -8.8 29% 7 76.07 0.0
02 18:15 W 9 16.09 Fair CLR 7.9 -9.2 29% 7 76.1 0.0
02 17:55 W 13 16.09 Fair CLR 7.9 -8.4 31% 6 76.1 0.0
02 17:35 W 13 16.09 Fair CLR 8 -7.9 32% 6 76.1 0.0
02 17:15 W 13 16.09 Fair CLR 7.9 -8.6 30% 6 76.12 0.0
02 16:55 W 13 16.09 Fair CLR 7.9 -8.7 30% 6 76.15 0.0
02 16:35 W 17 G 26 16.09 Fair CLR 7.8 -8.9 30% 5 76.15 0.0
02 16:15 W 15 16.09 Fair CLR 7.3 -8.5 32% 5 76.17 0.0
02 15:55 W 19 G 26 16.09 Fair CLR 7.3 -7.4 35% 4 76.17 0.0
02 15:35 W 19 G 28 16.09 Fair CLR 7 -5.6 41% 4 76.23 0.0
Date Time (edt) Wind (kph) Vis. (km) Weather Sky Cond. Air Dwpt Max. Min. Relative Humidity Wind Chill (°C) Heat Index (°C) altimeter (cm) sea level (mb) 1 hr 3 hr 6 hr
6 hour
Temperature (ºC) Pressure Precipitation (cm)